TH542 VTCC-VTBS
Flight info
| Callsign | TH542 |
|---|---|
| Flight time | N/A |
| Altitude | 29000 |
| Route | PANTA2N PANTA Y7 BLAFF NORTA1C |
| Aircraft | B77W/H-SDE1E2E3FGHIJ2J3J4J5M1RWXY/LB1D1 |
Departure
| Time | 2026-04-20 08:53 |
|---|---|
| Airport | Chiang Mai International Airport (VTCC) |
Arrival
| Time | N/A |
|---|---|
| Airport | Suvarnabhumi Airport (VTBS) |
| Time | Latitude | Longitude | Altitude | Speed | Heading |
|---|---|---|---|---|---|
| 2026-04-20 08:39 | 18.76914 | 98.96706 | 1038 ft | 0 kts | 94° |
| 2026-04-20 08:46 | 18.76914 | 98.96704 | 1038 ft | 2 kts | 94° |
| 2026-04-20 08:46 | 18.76916 | 98.96680 | 1038 ft | 4 kts | 99° |
| 2026-04-20 08:46 | 18.76922 | 98.96660 | 1038 ft | 4 kts | 135° |
| 2026-04-20 08:46 | 18.76940 | 98.96649 | 1038 ft | 4 kts | 168° |
| 2026-04-20 08:47 | 18.76966 | 98.96645 | 1038 ft | 4 kts | 178° |
| 2026-04-20 08:47 | 18.76972 | 98.96645 | 1038 ft | 0 kts | 179° |
| 2026-04-20 08:47 | 18.76971 | 98.96645 | 1038 ft | 1 kts | 179° |
| 2026-04-20 08:47 | 18.76948 | 98.96646 | 1038 ft | 6 kts | 179° |
| 2026-04-20 08:48 | 18.76890 | 98.96647 | 1037 ft | 11 kts | 179° |
| 2026-04-20 08:48 | 18.76805 | 98.96647 | 1036 ft | 13 kts | 181° |
| 2026-04-20 08:48 | 18.76742 | 98.96593 | 1035 ft | 13 kts | 256° |
| 2026-04-20 08:48 | 18.76702 | 98.96517 | 1033 ft | 13 kts | 200° |
| 2026-04-20 08:49 | 18.76613 | 98.96516 | 1032 ft | 13 kts | 181° |
| 2026-04-20 08:49 | 18.76521 | 98.96515 | 1032 ft | 13 kts | 181° |
| 2026-04-20 08:49 | 18.76429 | 98.96513 | 1031 ft | 13 kts | 181° |
| 2026-04-20 08:49 | 18.76337 | 98.96514 | 1030 ft | 13 kts | 179° |
| 2026-04-20 08:50 | 18.76244 | 98.96515 | 1029 ft | 13 kts | 180° |
| 2026-04-20 08:50 | 18.76152 | 98.96515 | 1027 ft | 13 kts | 181° |
| 2026-04-20 08:50 | 18.76060 | 98.96514 | 1026 ft | 13 kts | 179° |
| 2026-04-20 08:50 | 18.75957 | 98.96515 | 1025 ft | 20 kts | 180° |
| 2026-04-20 08:51 | 18.75795 | 98.96514 | 1023 ft | 24 kts | 180° |
| 2026-04-20 08:51 | 18.75631 | 98.96515 | 1022 ft | 24 kts | 180° |
| 2026-04-20 08:51 | 18.75469 | 98.96480 | 1023 ft | 24 kts | 209° |
| 2026-04-20 08:51 | 18.75368 | 98.96419 | 1022 ft | 6 kts | 210° |
| 2026-04-20 08:52 | 18.75326 | 98.96371 | 1021 ft | 12 kts | 249° |
| 2026-04-20 08:52 | 18.75346 | 98.96295 | 1021 ft | 12 kts | 325° |
| 2026-04-20 08:52 | 18.75462 | 98.96283 | 1022 ft | 31 kts | 0° |
| 2026-04-20 08:52 | 18.75972 | 98.96284 | 1026 ft | 115 kts | 0° |
| 2026-04-20 08:53 | 18.77032 | 98.96282 | 1040 ft | 187 kts | 359° |
| 2026-04-20 08:53 | 18.78436 | 98.96280 | 1526 ft | 203 kts | 359° |
| 2026-04-20 08:53 | 18.79867 | 98.96259 | 2370 ft | 204 kts | 359° |
| 2026-04-20 08:53 | 18.81279 | 98.96238 | 3158 ft | 211 kts | 358° |
| 2026-04-20 08:54 | 18.82858 | 98.96258 | 3387 ft | 242 kts | 360° |
| 2026-04-20 08:54 | 18.84620 | 98.96290 | 3667 ft | 268 kts | 359° |
| 2026-04-20 08:54 | 18.86539 | 98.96309 | 4411 ft | 275 kts | 358° |
| 2026-04-20 08:54 | 18.88468 | 98.96322 | 5188 ft | 281 kts | 359° |
| 2026-04-20 08:55 | 18.90406 | 98.96333 | 6029 ft | 283 kts | 358° |
| 2026-04-20 08:55 | 18.92378 | 98.96349 | 6807 ft | 284 kts | 1° |
| 2026-04-20 08:55 | 18.94313 | 98.96870 | 7417 ft | 295 kts | 28° |
| 2026-04-20 08:55 | 18.95884 | 98.98259 | 8220 ft | 298 kts | 52° |
| 2026-04-20 08:56 | 18.96845 | 99.00197 | 8956 ft | 302 kts | 76° |
| 2026-04-20 08:56 | 18.97026 | 99.02407 | 9560 ft | 305 kts | 91° |
| 2026-04-20 08:56 | 18.96865 | 99.04660 | 10144 ft | 309 kts | 107° |
| 2026-04-20 08:56 | 18.94350 | 99.08010 | 10876 ft | 302 kts | 156° |
| 2026-04-20 08:57 | 18.90260 | 99.08726 | 11034 ft | 305 kts | 182° |
| 2026-04-20 08:57 | 18.82228 | 99.08611 | 11061 ft | 316 kts | 182° |
| 2026-04-20 08:57 | 18.73550 | 99.08575 | 10982 ft | 312 kts | 182° |
| 2026-04-20 08:57 | 18.63936 | 99.08539 | 12907 ft | 374 kts | 181° |
| 2026-04-20 08:58 | 18.53101 | 99.08514 | 15600 ft | 400 kts | 180° |
| 2026-04-20 08:58 | 18.43468 | 99.14567 | 18043 ft | 424 kts | 141° |
| 2026-04-20 08:58 | 18.34113 | 99.22628 | 20235 ft | 445 kts | 142° |
| 2026-04-20 08:58 | 18.24328 | 99.31035 | 22475 ft | 461 kts | 143° |
| 2026-04-20 08:59 | 18.12328 | 99.35816 | 24406 ft | 469 kts | 166° |
| 2026-04-20 08:59 | 17.99695 | 99.39912 | 26154 ft | 480 kts | 164° |
| 2026-04-20 08:59 | 17.83539 | 99.45318 | 28232 ft | 494 kts | 164° |
| 2026-04-20 08:59 | 17.65920 | 99.51188 | 30028 ft | 510 kts | 164° |
| 2026-04-20 09:00 | 17.29403 | 99.63303 | 30772 ft | 517 kts | 164° |
| 2026-04-20 09:00 | 17.02582 | 99.72173 | 30598 ft | 493 kts | 164° |
| 2026-04-20 09:00 | 16.76703 | 99.80707 | 30680 ft | 488 kts | 164° |
| 2026-04-20 09:00 | 16.50374 | 99.89403 | 30891 ft | 506 kts | 163° |
| 2026-04-20 09:01 | 16.23324 | 99.98320 | 30771 ft | 507 kts | 163° |
| 2026-04-20 09:01 | 15.96795 | 100.07080 | 30623 ft | 492 kts | 163° |
| 2026-04-20 09:01 | 15.79281 | 100.12844 | 30669 ft | 489 kts | 163° |
| 2026-04-20 09:01 | 15.53381 | 100.21350 | 30844 ft | 502 kts | 163° |
| 2026-04-20 09:02 | 15.27270 | 100.29919 | 28771 ft | 464 kts | 161° |
| 2026-04-20 09:02 | 15.06002 | 100.43103 | 25558 ft | 429 kts | 148° |
| 2026-04-20 09:02 | 14.86244 | 100.55110 | 22566 ft | 406 kts | 149° |
| 2026-04-20 09:02 | 14.66760 | 100.66010 | 19254 ft | 385 kts | 166° |
| 2026-04-20 09:03 | 14.46340 | 100.71785 | 16147 ft | 370 kts | 165° |
| 2026-04-20 09:03 | 14.36887 | 100.71032 | 14192 ft | 355 kts | 205° |
| 2026-04-20 09:03 | 14.34623 | 100.70081 | 13840 ft | 347 kts | 195° |
| 2026-04-20 09:03 | 14.30287 | 100.70351 | 13636 ft | 331 kts | 163° |
| 2026-04-20 09:04 | 14.26129 | 100.72053 | 13256 ft | 309 kts | 158° |
| 2026-04-20 09:04 | 14.18830 | 100.75264 | 11143 ft | 295 kts | 159° |
| 2026-04-20 09:04 | 14.11392 | 100.78464 | 8909 ft | 284 kts | 159° |
| 2026-04-20 09:04 | 14.04370 | 100.81474 | 6869 ft | 269 kts | 159° |
| 2026-04-20 09:05 | 13.97516 | 100.81089 | 5150 ft | 242 kts | 196° |
| 2026-04-20 09:05 | 13.92218 | 100.79688 | 3912 ft | 228 kts | 194° |
| 2026-04-20 09:05 | 13.89606 | 100.78998 | 3646 ft | 212 kts | 194° |
| 2026-04-20 09:05 | 13.86857 | 100.78274 | 3225 ft | 197 kts | 194° |
| 2026-04-20 09:06 | 13.84931 | 100.77768 | 3012 ft | 180 kts | 193° |
| 2026-04-20 09:06 | 13.83705 | 100.77446 | 3074 ft | 188 kts | 194° |
| 2026-04-20 09:06 | 13.82410 | 100.77103 | 2973 ft | 196 kts | 194° |
| 2026-04-20 09:06 | 13.81098 | 100.76776 | 2683 ft | 194 kts | 192° |
| 2026-04-20 09:07 | 13.79823 | 100.76451 | 2387 ft | 183 kts | 193° |
| 2026-04-20 09:07 | 13.78628 | 100.76153 | 2029 ft | 169 kts | 191° |
| 2026-04-20 09:07 | 13.77502 | 100.75892 | 1671 ft | 161 kts | 194° |
| 2026-04-20 09:07 | 13.76472 | 100.75617 | 1324 ft | 146 kts | 194° |
| 2026-04-20 09:08 | 13.75450 | 100.75336 | 1177 ft | 156 kts | 194° |